sensor_id;sensor_type;location;lat;lon;timestamp;P1;durP1;ratioP1;P2;durP2;ratioP2
8333;SDS011;4204;43.004;23.052;2023-02-21T00:01:02;3.30;;;2.00;;
8333;SDS011;4204;43.004;23.052;2023-02-21T00:03:47;3.23;;;2.20;;
8333;SDS011;4204;43.004;23.052;2023-02-21T00:06:33;2.77;;;2.20;;
8333;SDS011;4204;43.004;23.052;2023-02-21T00:09:18;2.87;;;2.67;;
8333;SDS011;4204;43.004;23.052;2023-02-21T00:12:03;2.37;;;2.17;;
8333;SDS011;4204;43.004;23.052;2023-02-21T00:14:48;2.87;;;2.10;;
8333;SDS011;4204;43.004;23.052;2023-02-21T00:17:35;2.00;;;1.80;;
8333;SDS011;4204;43.004;23.052;2023-02-21T00:20:20;1.50;;;1.40;;
8333;SDS011;4204;43.004;23.052;2023-02-21T00:23:05;2.70;;;1.50;;
8333;SDS011;4204;43.004;23.052;2023-02-21T00:25:50;2.00;;;1.80;;
8333;SDS011;4204;43.004;23.052;2023-02-21T00:28:37;4.37;;;2.90;;
8333;SDS011;4204;43.004;23.052;2023-02-21T00:31:22;3.90;;;2.47;;
8333;SDS011;4204;43.004;23.052;2023-02-21T00:34:09;3.87;;;3.30;;
8333;SDS011;4204;43.004;23.052;2023-02-21T00:36:54;3.00;;;2.70;;
8333;SDS011;4204;43.004;23.052;2023-02-21T00:39:39;4.60;;;3.27;;
8333;SDS011;4204;43.004;23.052;2023-02-21T00:42:25;2.80;;;2.47;;
8333;SDS011;4204;43.004;23.052;2023-02-21T00:45:10;4.00;;;2.80;;
8333;SDS011;4204;43.004;23.052;2023-02-21T00:47:57;3.50;;;2.90;;
8333;SDS011;4204;43.004;23.052;2023-02-21T00:50:44;2.67;;;2.47;;
8333;SDS011;4204;43.004;23.052;2023-02-21T00:53:29;7.53;;;4.13;;
8333;SDS011;4204;43.004;23.052;2023-02-21T00:56:14;5.43;;;3.13;;
8333;SDS011;4204;43.004;23.052;2023-02-21T00:59:00;3.37;;;2.53;;
8333;SDS011;4204;43.004;23.052;2023-02-21T01:01:45;3.43;;;2.90;;
8333;SDS011;4204;43.004;23.052;2023-02-21T01:04:31;11.97;;;5.87;;
8333;SDS011;4204;43.004;23.052;2023-02-21T01:07:18;15.43;;;8.43;;
8333;SDS011;4204;43.004;23.052;2023-02-21T01:10:05;13.43;;;7.07;;
8333;SDS011;4204;43.004;23.052;2023-02-21T01:12:51;15.60;;;8.50;;
8333;SDS011;4204;43.004;23.052;2023-02-21T01:15:36;10.70;;;5.57;;
8333;SDS011;4204;43.004;23.052;2023-02-21T01:18:21;10.27;;;6.03;;
8333;SDS011;4204;43.004;23.052;2023-02-21T01:21:10;3.13;;;2.10;;
8333;SDS011;4204;43.004;23.052;2023-02-21T01:23:58;8.40;;;4.40;;
8333;SDS011;4204;43.004;23.052;2023-02-21T01:26:43;14.00;;;7.63;;
8333;SDS011;4204;43.004;23.052;2023-02-21T01:29:28;8.83;;;5.47;;
8333;SDS011;4204;43.004;23.052;2023-02-21T01:32:13;14.90;;;7.73;;
8333;SDS011;4204;43.004;23.052;2023-02-21T01:34:59;16.23;;;8.03;;
8333;SDS011;4204;43.004;23.052;2023-02-21T01:37:44;11.37;;;5.83;;
8333;SDS011;4204;43.004;23.052;2023-02-21T01:40:31;7.27;;;3.97;;
8333;SDS011;4204;43.004;23.052;2023-02-21T01:43:16;4.90;;;2.90;;
8333;SDS011;4204;43.004;23.052;2023-02-21T01:46:04;3.83;;;2.70;;
8333;SDS011;4204;43.004;23.052;2023-02-21T01:48:50;3.47;;;2.67;;
8333;SDS011;4204;43.004;23.052;2023-02-21T01:51:38;7.13;;;2.87;;
8333;SDS011;4204;43.004;23.052;2023-02-21T01:54:25;3.57;;;2.33;;
8333;SDS011;4204;43.004;23.052;2023-02-21T01:57:15;3.77;;;1.80;;
8333;SDS011;4204;43.004;23.052;2023-02-21T02:00:02;2.23;;;1.70;;
8333;SDS011;4204;43.004;23.052;2023-02-21T02:02:54;3.93;;;1.80;;
8333;SDS011;4204;43.004;23.052;2023-02-21T02:05:42;2.17;;;1.70;;
8333;SDS011;4204;43.004;23.052;2023-02-21T02:08:32;2.87;;;2.27;;
8333;SDS011;4204;43.004;23.052;2023-02-21T02:14:46;5.47;;;1.83;;
8333;SDS011;4204;43.004;23.052;2023-02-21T02:17:35;2.13;;;1.93;;
8333;SDS011;4204;43.004;23.052;2023-02-21T02:20:31;1.70;;;1.60;;
8333;SDS011;4204;43.004;23.052;2023-02-21T02:23:30;2.67;;;1.77;;
8333;SDS011;4204;43.004;23.052;2023-02-21T02:29:18;2.10;;;1.90;;
8333;SDS011;4204;43.004;23.052;2023-02-21T02:32:15;3.03;;;1.80;;
8333;SDS011;4204;43.004;23.052;2023-02-21T02:35:01;2.40;;;1.87;;
8333;SDS011;4204;43.004;23.052;2023-02-21T02:37:42;2.00;;;1.80;;
8333;SDS011;4204;43.004;23.052;2023-02-21T02:40:19;3.30;;;1.93;;
8333;SDS011;4204;43.004;23.052;2023-02-21T02:42:57;3.23;;;1.70;;
8333;SDS011;4204;43.004;23.052;2023-02-21T02:45:36;2.27;;;1.83;;
8333;SDS011;4204;43.004;23.052;2023-02-21T02:48:11;2.57;;;1.60;;
8333;SDS011;4204;43.004;23.052;2023-02-21T02:50:44;2.30;;;2.10;;
8333;SDS011;4204;43.004;23.052;2023-02-21T02:53:16;3.40;;;2.27;;
8333;SDS011;4204;43.004;23.052;2023-02-21T02:55:47;4.47;;;2.67;;
8333;SDS011;4204;43.004;23.052;2023-02-21T02:58:19;2.67;;;2.23;;
8333;SDS011;4204;43.004;23.052;2023-02-21T03:00:53;3.07;;;2.33;;
8333;SDS011;4204;43.004;23.052;2023-02-21T03:03:35;4.27;;;2.93;;
8333;SDS011;4204;43.004;23.052;2023-02-21T03:06:20;4.00;;;2.70;;
8333;SDS011;4204;43.004;23.052;2023-02-21T03:09:02;4.47;;;2.90;;
8333;SDS011;4204;43.004;23.052;2023-02-21T03:11:40;6.23;;;3.97;;
8333;SDS011;4204;43.004;23.052;2023-02-21T03:14:19;5.73;;;3.80;;
8333;SDS011;4204;43.004;23.052;2023-02-21T03:16:54;7.93;;;4.27;;
8333;SDS011;4204;43.004;23.052;2023-02-21T03:19:27;6.77;;;4.27;;
8333;SDS011;4204;43.004;23.052;2023-02-21T03:22:00;7.63;;;4.73;;
8333;SDS011;4204;43.004;23.052;2023-02-21T03:24:30;9.07;;;4.93;;
8333;SDS011;4204;43.004;23.052;2023-02-21T03:27:02;8.83;;;5.53;;
8333;SDS011;4204;43.004;23.052;2023-02-21T03:29:56;10.20;;;5.40;;
8333;SDS011;4204;43.004;23.052;2023-02-21T03:32:27;8.43;;;6.27;;
8333;SDS011;4204;43.004;23.052;2023-02-21T03:35:00;12.10;;;8.37;;
8333;SDS011;4204;43.004;23.052;2023-02-21T03:37:31;14.67;;;8.43;;
8333;SDS011;4204;43.004;23.052;2023-02-21T03:40:00;9.67;;;6.20;;
8333;SDS011;4204;43.004;23.052;2023-02-21T03:42:32;7.07;;;5.20;;
8333;SDS011;4204;43.004;23.052;2023-02-21T03:45:00;8.10;;;4.30;;
8333;SDS011;4204;43.004;23.052;2023-02-21T03:47:28;6.43;;;4.10;;
8333;SDS011;4204;43.004;23.052;2023-02-21T03:49:56;4.80;;;2.90;;
8333;SDS011;4204;43.004;23.052;2023-02-21T03:52:24;6.30;;;3.20;;
8333;SDS011;4204;43.004;23.052;2023-02-21T03:54:53;6.80;;;3.20;;
8333;SDS011;4204;43.004;23.052;2023-02-21T03:57:24;3.70;;;2.80;;
8333;SDS011;4204;43.004;23.052;2023-02-21T03:59:52;3.37;;;2.53;;
8333;SDS011;4204;43.004;23.052;2023-02-21T04:02:20;3.07;;;2.23;;
8333;SDS011;4204;43.004;23.052;2023-02-21T04:04:48;4.53;;;3.17;;
8333;SDS011;4204;43.004;23.052;2023-02-21T04:07:18;4.17;;;2.67;;
8333;SDS011;4204;43.004;23.052;2023-02-21T04:09:48;6.27;;;3.10;;
8333;SDS011;4204;43.004;23.052;2023-02-21T04:12:28;5.50;;;3.27;;
8333;SDS011;4204;43.004;23.052;2023-02-21T04:14:56;4.43;;;2.90;;
8333;SDS011;4204;43.004;23.052;2023-02-21T04:17:24;7.27;;;3.87;;
8333;SDS011;4204;43.004;23.052;2023-02-21T04:19:54;5.67;;;3.73;;
8333;SDS011;4204;43.004;23.052;2023-02-21T04:22:22;5.77;;;3.70;;
8333;SDS011;4204;43.004;23.052;2023-02-21T04:24:51;23.60;;;11.47;;
8333;SDS011;4204;43.004;23.052;2023-02-21T04:27:21;8.27;;;5.60;;
8333;SDS011;4204;43.004;23.052;2023-02-21T04:29:55;9.97;;;5.43;;
8333;SDS011;4204;43.004;23.052;2023-02-21T04:32:23;6.97;;;4.90;;
8333;SDS011;4204;43.004;23.052;2023-02-21T04:34:50;6.13;;;3.50;;
8333;SDS011;4204;43.004;23.052;2023-02-21T04:37:19;6.67;;;3.70;;
8333;SDS011;4204;43.004;23.052;2023-02-21T04:39:47;21.57;;;6.17;;
8333;SDS011;4204;43.004;23.052;2023-02-21T04:42:16;8.30;;;5.00;;
8333;SDS011;4204;43.004;23.052;2023-02-21T04:44:44;4.87;;;3.63;;
8333;SDS011;4204;43.004;23.052;2023-02-21T04:47:13;4.83;;;3.53;;
8333;SDS011;4204;43.004;23.052;2023-02-21T04:49:41;5.97;;;4.00;;
8333;SDS011;4204;43.004;23.052;2023-02-21T04:52:09;8.30;;;4.57;;
8333;SDS011;4204;43.004;23.052;2023-02-21T04:54:37;4.70;;;3.67;;
8333;SDS011;4204;43.004;23.052;2023-02-21T04:57:04;18.27;;;8.93;;
8333;SDS011;4204;43.004;23.052;2023-02-21T04:59:32;10.50;;;6.47;;
8333;SDS011;4204;43.004;23.052;2023-02-21T05:02:00;8.73;;;5.90;;
8333;SDS011;4204;43.004;23.052;2023-02-21T05:04:29;8.40;;;4.83;;
8333;SDS011;4204;43.004;23.052;2023-02-21T05:06:57;9.57;;;5.50;;
8333;SDS011;4204;43.004;23.052;2023-02-21T05:09:25;5.37;;;4.07;;
8333;SDS011;4204;43.004;23.052;2023-02-21T05:11:53;5.67;;;3.80;;
8333;SDS011;4204;43.004;23.052;2023-02-21T05:14:21;7.03;;;4.70;;
8333;SDS011;4204;43.004;23.052;2023-02-21T05:16:49;6.03;;;3.10;;
8333;SDS011;4204;43.004;23.052;2023-02-21T05:19:18;5.37;;;3.77;;
8333;SDS011;4204;43.004;23.052;2023-02-21T05:21:54;4.10;;;3.17;;
8333;SDS011;4204;43.004;23.052;2023-02-21T05:24:23;10.10;;;4.90;;
8333;SDS011;4204;43.004;23.052;2023-02-21T05:26:51;10.30;;;4.93;;
8333;SDS011;4204;43.004;23.052;2023-02-21T05:29:19;7.83;;;5.30;;
8333;SDS011;4204;43.004;23.052;2023-02-21T05:31:48;11.60;;;7.80;;
8333;SDS011;4204;43.004;23.052;2023-02-21T05:34:16;9.13;;;5.40;;
8333;SDS011;4204;43.004;23.052;2023-02-21T05:36:45;7.67;;;4.80;;
8333;SDS011;4204;43.004;23.052;2023-02-21T05:39:14;12.33;;;5.87;;
8333;SDS011;4204;43.004;23.052;2023-02-21T05:41:46;8.03;;;4.77;;
8333;SDS011;4204;43.004;23.052;2023-02-21T05:44:14;5.80;;;3.70;;
8333;SDS011;4204;43.004;23.052;2023-02-21T05:46:43;6.53;;;3.80;;
8333;SDS011;4204;43.004;23.052;2023-02-21T05:49:11;6.97;;;3.03;;
8333;SDS011;4204;43.004;23.052;2023-02-21T05:51:41;6.17;;;3.77;;
8333;SDS011;4204;43.004;23.052;2023-02-21T05:54:12;6.00;;;3.13;;
8333;SDS011;4204;43.004;23.052;2023-02-21T05:56:45;4.87;;;2.70;;
8333;SDS011;4204;43.004;23.052;2023-02-21T05:59:14;6.47;;;3.73;;
8333;SDS011;4204;43.004;23.052;2023-02-21T06:01:43;64.13;;;8.00;;
8333;SDS011;4204;43.004;23.052;2023-02-21T06:04:11;6.13;;;3.37;;
8333;SDS011;4204;43.004;23.052;2023-02-21T06:06:39;7.70;;;3.90;;
8333;SDS011;4204;43.004;23.052;2023-02-21T06:09:07;9.73;;;4.57;;
8333;SDS011;4204;43.004;23.052;2023-02-21T06:11:38;9.77;;;5.17;;
8333;SDS011;4204;43.004;23.052;2023-02-21T06:14:08;10.27;;;5.77;;
8333;SDS011;4204;43.004;23.052;2023-02-21T06:16:40;10.07;;;5.20;;
8333;SDS011;4204;43.004;23.052;2023-02-21T06:19:09;11.87;;;6.20;;
8333;SDS011;4204;43.004;23.052;2023-02-21T06:21:37;10.83;;;5.23;;
8333;SDS011;4204;43.004;23.052;2023-02-21T06:24:07;11.07;;;5.33;;
8333;SDS011;4204;43.004;23.052;2023-02-21T06:26:35;5.63;;;3.57;;
8333;SDS011;4204;43.004;23.052;2023-02-21T06:29:06;7.07;;;3.50;;
8333;SDS011;4204;43.004;23.052;2023-02-21T06:31:34;4.47;;;2.47;;
8333;SDS011;4204;43.004;23.052;2023-02-21T06:34:02;3.77;;;2.33;;
8333;SDS011;4204;43.004;23.052;2023-02-21T06:36:31;3.10;;;2.47;;
8333;SDS011;4204;43.004;23.052;2023-02-21T06:38:58;4.37;;;2.53;;
8333;SDS011;4204;43.004;23.052;2023-02-21T06:41:27;3.40;;;2.60;;
8333;SDS011;4204;43.004;23.052;2023-02-21T06:43:57;6.93;;;3.40;;
8333;SDS011;4204;43.004;23.052;2023-02-21T06:46:26;4.80;;;3.23;;
8333;SDS011;4204;43.004;23.052;2023-02-21T06:48:55;8.30;;;4.60;;
8333;SDS011;4204;43.004;23.052;2023-02-21T06:51:23;7.77;;;4.97;;
8333;SDS011;4204;43.004;23.052;2023-02-21T06:53:54;5.33;;;3.93;;
8333;SDS011;4204;43.004;23.052;2023-02-21T06:56:23;9.47;;;4.47;;
8333;SDS011;4204;43.004;23.052;2023-02-21T06:58:51;6.60;;;3.87;;
8333;SDS011;4204;43.004;23.052;2023-02-21T07:01:20;7.97;;;4.63;;
8333;SDS011;4204;43.004;23.052;2023-02-21T07:03:49;13.63;;;6.40;;
8333;SDS011;4204;43.004;23.052;2023-02-21T07:06:16;10.17;;;6.83;;
8333;SDS011;4204;43.004;23.052;2023-02-21T07:08:44;11.20;;;7.20;;
8333;SDS011;4204;43.004;23.052;2023-02-21T07:11:12;15.17;;;9.10;;
8333;SDS011;4204;43.004;23.052;2023-02-21T07:13:40;14.57;;;9.60;;
8333;SDS011;4204;43.004;23.052;2023-02-21T07:16:12;22.30;;;12.53;;
8333;SDS011;4204;43.004;23.052;2023-02-21T07:18:44;22.53;;;13.60;;
8333;SDS011;4204;43.004;23.052;2023-02-21T07:21:13;22.87;;;15.20;;
8333;SDS011;4204;43.004;23.052;2023-02-21T07:23:42;25.83;;;15.63;;
8333;SDS011;4204;43.004;23.052;2023-02-21T07:26:10;21.97;;;14.97;;
8333;SDS011;4204;43.004;23.052;2023-02-21T07:28:38;17.83;;;11.80;;
8333;SDS011;4204;43.004;23.052;2023-02-21T07:31:06;24.87;;;12.80;;
8333;SDS011;4204;43.004;23.052;2023-02-21T07:33:35;19.93;;;12.17;;
8333;SDS011;4204;43.004;23.052;2023-02-21T07:36:05;21.87;;;12.50;;
8333;SDS011;4204;43.004;23.052;2023-02-21T07:38:34;44.40;;;27.73;;
8333;SDS011;4204;43.004;23.052;2023-02-21T07:41:02;32.13;;;21.13;;
8333;SDS011;4204;43.004;23.052;2023-02-21T07:43:30;35.93;;;21.60;;
8333;SDS011;4204;43.004;23.052;2023-02-21T07:45:58;35.97;;;22.13;;
8333;SDS011;4204;43.004;23.052;2023-02-21T07:48:26;23.73;;;15.33;;
8333;SDS011;4204;43.004;23.052;2023-02-21T07:50:54;9.87;;;7.33;;
8333;SDS011;4204;43.004;23.052;2023-02-21T07:53:23;14.77;;;8.03;;
8333;SDS011;4204;43.004;23.052;2023-02-21T07:55:51;12.23;;;8.30;;
8333;SDS011;4204;43.004;23.052;2023-02-21T07:58:19;8.17;;;5.40;;
8333;SDS011;4204;43.004;23.052;2023-02-21T08:00:47;6.90;;;5.00;;
8333;SDS011;4204;43.004;23.052;2023-02-21T08:03:15;6.53;;;4.00;;
8333;SDS011;4204;43.004;23.052;2023-02-21T08:05:43;7.40;;;4.97;;
8333;SDS011;4204;43.004;23.052;2023-02-21T08:08:13;6.20;;;4.20;;
8333;SDS011;4204;43.004;23.052;2023-02-21T08:10:42;5.17;;;3.77;;
8333;SDS011;4204;43.004;23.052;2023-02-21T08:13:10;6.23;;;3.70;;
8333;SDS011;4204;43.004;23.052;2023-02-21T08:15:38;7.33;;;3.93;;
8333;SDS011;4204;43.004;23.052;2023-02-21T08:18:05;7.77;;;3.73;;
8333;SDS011;4204;43.004;23.052;2023-02-21T08:20:33;6.73;;;3.87;;
8333;SDS011;4204;43.004;23.052;2023-02-21T08:23:02;6.83;;;3.63;;
8333;SDS011;4204;43.004;23.052;2023-02-21T08:25:30;9.37;;;4.57;;
8333;SDS011;4204;43.004;23.052;2023-02-21T08:27:59;7.97;;;5.17;;
8333;SDS011;4204;43.004;23.052;2023-02-21T08:30:28;6.33;;;4.43;;
8333;SDS011;4204;43.004;23.052;2023-02-21T08:32:56;8.77;;;5.20;;
8333;SDS011;4204;43.004;23.052;2023-02-21T08:35:24;6.63;;;4.43;;
8333;SDS011;4204;43.004;23.052;2023-02-21T08:37:53;8.77;;;4.70;;
8333;SDS011;4204;43.004;23.052;2023-02-21T08:40:22;8.17;;;5.30;;
8333;SDS011;4204;43.004;23.052;2023-02-21T08:42:52;11.37;;;6.67;;
8333;SDS011;4204;43.004;23.052;2023-02-21T08:45:22;6.40;;;4.87;;
8333;SDS011;4204;43.004;23.052;2023-02-21T08:47:52;9.80;;;4.53;;
8333;SDS011;4204;43.004;23.052;2023-02-21T08:50:21;9.90;;;5.57;;
8333;SDS011;4204;43.004;23.052;2023-02-21T08:52:51;9.20;;;5.13;;
8333;SDS011;4204;43.004;23.052;2023-02-21T08:55:19;9.07;;;4.77;;
8333;SDS011;4204;43.004;23.052;2023-02-21T08:57:48;6.67;;;3.60;;
8333;SDS011;4204;43.004;23.052;2023-02-21T09:00:18;5.37;;;3.87;;
8333;SDS011;4204;43.004;23.052;2023-02-21T09:02:50;5.17;;;3.57;;
8333;SDS011;4204;43.004;23.052;2023-02-21T09:05:19;12.33;;;4.27;;
8333;SDS011;4204;43.004;23.052;2023-02-21T09:07:50;6.67;;;3.87;;
8333;SDS011;4204;43.004;23.052;2023-02-21T09:10:20;7.97;;;3.83;;
8333;SDS011;4204;43.004;23.052;2023-02-21T09:12:48;5.37;;;3.90;;
8333;SDS011;4204;43.004;23.052;2023-02-21T09:15:16;5.53;;;3.57;;
8333;SDS011;4204;43.004;23.052;2023-02-21T09:17:43;4.13;;;3.03;;
8333;SDS011;4204;43.004;23.052;2023-02-21T09:20:15;5.13;;;3.83;;
8333;SDS011;4204;43.004;23.052;2023-02-21T09:22:44;6.70;;;3.43;;
8333;SDS011;4204;43.004;23.052;2023-02-21T09:25:13;7.53;;;5.03;;
8333;SDS011;4204;43.004;23.052;2023-02-21T09:27:42;4.07;;;3.60;;
8333;SDS011;4204;43.004;23.052;2023-02-21T09:30:10;6.70;;;3.40;;
8333;SDS011;4204;43.004;23.052;2023-02-21T09:32:41;5.23;;;3.43;;
8333;SDS011;4204;43.004;23.052;2023-02-21T09:35:08;5.07;;;3.67;;
8333;SDS011;4204;43.004;23.052;2023-02-21T09:37:40;4.63;;;3.47;;
8333;SDS011;4204;43.004;23.052;2023-02-21T09:40:11;5.93;;;3.57;;
8333;SDS011;4204;43.004;23.052;2023-02-21T09:42:43;6.83;;;3.60;;
8333;SDS011;4204;43.004;23.052;2023-02-21T09:45:13;13.27;;;3.60;;
8333;SDS011;4204;43.004;23.052;2023-02-21T09:47:44;6.90;;;3.27;;
8333;SDS011;4204;43.004;23.052;2023-02-21T09:50:18;5.53;;;3.20;;
8333;SDS011;4204;43.004;23.052;2023-02-21T09:52:54;4.70;;;3.00;;
8333;SDS011;4204;43.004;23.052;2023-02-21T09:55:26;5.30;;;3.43;;
8333;SDS011;4204;43.004;23.052;2023-02-21T09:57:55;5.40;;;3.10;;
8333;SDS011;4204;43.004;23.052;2023-02-21T10:00:24;3.13;;;2.83;;
8333;SDS011;4204;43.004;23.052;2023-02-21T10:03:02;4.20;;;3.03;;
8333;SDS011;4204;43.004;23.052;2023-02-21T10:05:42;3.50;;;2.70;;
8333;SDS011;4204;43.004;23.052;2023-02-21T10:08:16;4.57;;;2.57;;
8333;SDS011;4204;43.004;23.052;2023-02-21T10:10:52;3.20;;;2.80;;
8333;SDS011;4204;43.004;23.052;2023-02-21T10:13:27;4.50;;;3.17;;
8333;SDS011;4204;43.004;23.052;2023-02-21T10:16:07;6.97;;;3.77;;
8333;SDS011;4204;43.004;23.052;2023-02-21T10:18:39;5.63;;;2.80;;
8333;SDS011;4204;43.004;23.052;2023-02-21T10:21:14;5.37;;;3.00;;
8333;SDS011;4204;43.004;23.052;2023-02-21T10:23:49;3.20;;;2.90;;
8333;SDS011;4204;43.004;23.052;2023-02-21T10:26:23;5.13;;;2.93;;
8333;SDS011;4204;43.004;23.052;2023-02-21T10:28:52;3.47;;;2.60;;
8333;SDS011;4204;43.004;23.052;2023-02-21T10:31:23;4.37;;;2.80;;
8333;SDS011;4204;43.004;23.052;2023-02-21T10:33:57;4.60;;;3.00;;
8333;SDS011;4204;43.004;23.052;2023-02-21T10:36:25;3.27;;;2.90;;
8333;SDS011;4204;43.004;23.052;2023-02-21T10:38:56;6.07;;;4.53;;
8333;SDS011;4204;43.004;23.052;2023-02-21T10:41:27;7.87;;;3.40;;
8333;SDS011;4204;43.004;23.052;2023-02-21T10:43:58;4.67;;;3.20;;
8333;SDS011;4204;43.004;23.052;2023-02-21T10:46:32;5.70;;;2.77;;
8333;SDS011;4204;43.004;23.052;2023-02-21T10:49:14;7.97;;;6.53;;
8333;SDS011;4204;43.004;23.052;2023-02-21T10:51:47;5.43;;;3.00;;
8333;SDS011;4204;43.004;23.052;2023-02-21T10:54:32;4.20;;;2.93;;
8333;SDS011;4204;43.004;23.052;2023-02-21T10:56:59;4.83;;;3.63;;
8333;SDS011;4204;43.004;23.052;2023-02-21T10:59:31;4.60;;;3.13;;
8333;SDS011;4204;43.004;23.052;2023-02-21T11:02:01;3.77;;;2.77;;
8333;SDS011;4204;43.004;23.052;2023-02-21T11:04:35;3.53;;;2.50;;
8333;SDS011;4204;43.004;23.052;2023-02-21T11:07:05;4.53;;;2.97;;
8333;SDS011;4204;43.004;23.052;2023-02-21T11:09:37;3.47;;;2.33;;
8333;SDS011;4204;43.004;23.052;2023-02-21T11:12:16;2.53;;;2.33;;
8333;SDS011;4204;43.004;23.052;2023-02-21T11:17:34;7.63;;;4.10;;
8333;SDS011;4204;43.004;23.052;2023-02-21T11:20:03;3.83;;;2.70;;
8333;SDS011;4204;43.004;23.052;2023-02-21T11:22:43;4.67;;;2.40;;
8333;SDS011;4204;43.004;23.052;2023-02-21T11:25:17;3.10;;;2.60;;
8333;SDS011;4204;43.004;23.052;2023-02-21T11:28:01;4.37;;;3.07;;
8333;SDS011;4204;43.004;23.052;2023-02-21T11:30:32;6.87;;;2.90;;
8333;SDS011;4204;43.004;23.052;2023-02-21T11:33:02;2.20;;;2.00;;
8333;SDS011;4204;43.004;23.052;2023-02-21T11:35:32;3.47;;;2.60;;
8333;SDS011;4204;43.004;23.052;2023-02-21T11:38:02;2.97;;;2.37;;
8333;SDS011;4204;43.004;23.052;2023-02-21T11:40:43;3.53;;;2.00;;
8333;SDS011;4204;43.004;23.052;2023-02-21T11:43:20;4.07;;;2.43;;
8333;SDS011;4204;43.004;23.052;2023-02-21T11:46:02;2.30;;;2.10;;
8333;SDS011;4204;43.004;23.052;2023-02-21T11:48:37;4.60;;;2.90;;
8333;SDS011;4204;43.004;23.052;2023-02-21T11:51:15;5.83;;;3.40;;
8333;SDS011;4204;43.004;23.052;2023-02-21T11:53:52;3.97;;;2.60;;
8333;SDS011;4204;43.004;23.052;2023-02-21T11:56:25;3.03;;;2.27;;
8333;SDS011;4204;43.004;23.052;2023-02-21T11:59:01;3.27;;;2.30;;
8333;SDS011;4204;43.004;23.052;2023-02-21T12:01:38;4.03;;;2.30;;
8333;SDS011;4204;43.004;23.052;2023-02-21T12:04:27;3.30;;;2.40;;
8333;SDS011;4204;43.004;23.052;2023-02-21T12:07:06;2.43;;;2.00;;
8333;SDS011;4204;43.004;23.052;2023-02-21T12:09:44;6.17;;;2.47;;
8333;SDS011;4204;43.004;23.052;2023-02-21T12:12:31;2.63;;;2.00;;
8333;SDS011;4204;43.004;23.052;2023-02-21T12:15:18;2.73;;;2.10;;
8333;SDS011;4204;43.004;23.052;2023-02-21T12:17:56;2.77;;;1.87;;
8333;SDS011;4204;43.004;23.052;2023-02-21T12:20:41;3.93;;;2.33;;
8333;SDS011;4204;43.004;23.052;2023-02-21T12:23:22;3.33;;;2.47;;
8333;SDS011;4204;43.004;23.052;2023-02-21T12:26:03;2.10;;;1.90;;
8333;SDS011;4204;43.004;23.052;2023-02-21T12:31:42;2.67;;;2.00;;
8333;SDS011;4204;43.004;23.052;2023-02-21T12:34:22;4.53;;;2.10;;
8333;SDS011;4204;43.004;23.052;2023-02-21T12:37:00;1.87;;;1.73;;
8333;SDS011;4204;43.004;23.052;2023-02-21T12:39:44;3.80;;;2.33;;
8333;SDS011;4204;43.004;23.052;2023-02-21T12:42:26;2.93;;;1.80;;
8333;SDS011;4204;43.004;23.052;2023-02-21T12:45:12;3.57;;;2.40;;
8333;SDS011;4204;43.004;23.052;2023-02-21T12:47:53;3.17;;;1.80;;
8333;SDS011;4204;43.004;23.052;2023-02-21T12:50:28;3.37;;;2.00;;
8333;SDS011;4204;43.004;23.052;2023-02-21T12:52:59;5.37;;;3.00;;
8333;SDS011;4204;43.004;23.052;2023-02-21T12:55:34;2.57;;;2.03;;
8333;SDS011;4204;43.004;23.052;2023-02-21T12:58:09;3.13;;;2.70;;
8333;SDS011;4204;43.004;23.052;2023-02-21T13:00:43;3.53;;;2.50;;
8333;SDS011;4204;43.004;23.052;2023-02-21T13:03:22;6.87;;;2.90;;
8333;SDS011;4204;43.004;23.052;2023-02-21T13:06:01;5.43;;;3.27;;
8333;SDS011;4204;43.004;23.052;2023-02-21T13:08:33;6.73;;;3.20;;
8333;SDS011;4204;43.004;23.052;2023-02-21T13:11:06;3.67;;;2.63;;
8333;SDS011;4204;43.004;23.052;2023-02-21T13:13:40;2.80;;;2.10;;
8333;SDS011;4204;43.004;23.052;2023-02-21T13:16:09;3.67;;;2.57;;
8333;SDS011;4204;43.004;23.052;2023-02-21T13:18:41;4.60;;;2.50;;
8333;SDS011;4204;43.004;23.052;2023-02-21T13:21:15;3.47;;;2.30;;
8333;SDS011;4204;43.004;23.052;2023-02-21T13:23:56;7.10;;;3.50;;
8333;SDS011;4204;43.004;23.052;2023-02-21T13:27:00;3.63;;;2.30;;
8333;SDS011;4204;43.004;23.052;2023-02-21T13:29:46;3.00;;;2.10;;
8333;SDS011;4204;43.004;23.052;2023-02-21T13:32:18;3.67;;;2.40;;
8333;SDS011;4204;43.004;23.052;2023-02-21T13:34:48;3.70;;;2.20;;
8333;SDS011;4204;43.004;23.052;2023-02-21T13:37:22;4.87;;;2.20;;
8333;SDS011;4204;43.004;23.052;2023-02-21T13:39:54;2.50;;;2.20;;
8333;SDS011;4204;43.004;23.052;2023-02-21T13:42:30;3.30;;;2.60;;
8333;SDS011;4204;43.004;23.052;2023-02-21T13:45:08;5.60;;;3.07;;
8333;SDS011;4204;43.004;23.052;2023-02-21T13:50:53;2.70;;;1.90;;
8333;SDS011;4204;43.004;23.052;2023-02-21T13:53:22;4.47;;;2.00;;
8333;SDS011;4204;43.004;23.052;2023-02-21T14:05:06;3.80;;;2.50;;
8333;SDS011;4204;43.004;23.052;2023-02-21T14:07:48;4.00;;;2.47;;
8333;SDS011;4204;43.004;23.052;2023-02-21T14:10:24;2.43;;;1.90;;
8333;SDS011;4204;43.004;23.052;2023-02-21T14:12:57;3.53;;;2.20;;
8333;SDS011;4204;43.004;23.052;2023-02-21T14:18:24;4.00;;;2.20;;
8333;SDS011;4204;43.004;23.052;2023-02-21T14:20:56;4.30;;;2.37;;
8333;SDS011;4204;43.004;23.052;2023-02-21T14:23:38;3.57;;;2.27;;
8333;SDS011;4204;43.004;23.052;2023-02-21T14:26:32;5.30;;;3.57;;
8333;SDS011;4204;43.004;23.052;2023-02-21T14:29:11;5.30;;;1.90;;
8333;SDS011;4204;43.004;23.052;2023-02-21T14:31:54;4.50;;;3.13;;
8333;SDS011;4204;43.004;23.052;2023-02-21T14:34:29;5.00;;;2.70;;
8333;SDS011;4204;43.004;23.052;2023-02-21T14:37:02;2.83;;;2.30;;
8333;SDS011;4204;43.004;23.052;2023-02-21T14:39:40;4.30;;;2.10;;
8333;SDS011;4204;43.004;23.052;2023-02-21T14:42:18;3.10;;;2.27;;
8333;SDS011;4204;43.004;23.052;2023-02-21T14:45:03;6.37;;;2.80;;
8333;SDS011;4204;43.004;23.052;2023-02-21T14:48:00;8.23;;;6.33;;
8333;SDS011;4204;43.004;23.052;2023-02-21T14:50:42;4.17;;;3.10;;
8333;SDS011;4204;43.004;23.052;2023-02-21T14:56:53;24.13;;;15.80;;
8333;SDS011;4204;43.004;23.052;2023-02-21T14:59:35;4.90;;;3.67;;
8333;SDS011;4204;43.004;23.052;2023-02-21T15:02:17;5.13;;;3.00;;
8333;SDS011;4204;43.004;23.052;2023-02-21T15:04:56;7.23;;;6.50;;
8333;SDS011;4204;43.004;23.052;2023-02-21T15:07:36;3.20;;;2.60;;
8333;SDS011;4204;43.004;23.052;2023-02-21T15:10:11;5.30;;;3.57;;
8333;SDS011;4204;43.004;23.052;2023-02-21T15:12:44;3.77;;;2.43;;
8333;SDS011;4204;43.004;23.052;2023-02-21T15:15:16;4.70;;;2.67;;
8333;SDS011;4204;43.004;23.052;2023-02-21T15:17:57;3.87;;;2.53;;
8333;SDS011;4204;43.004;23.052;2023-02-21T15:20:28;2.63;;;2.33;;
8333;SDS011;4204;43.004;23.052;2023-02-21T15:22:56;5.70;;;3.13;;
8333;SDS011;4204;43.004;23.052;2023-02-21T15:25:27;6.23;;;4.10;;
8333;SDS011;4204;43.004;23.052;2023-02-21T15:28:02;24.43;;;21.10;;
8333;SDS011;4204;43.004;23.052;2023-02-21T15:30:33;22.80;;;17.53;;
8333;SDS011;4204;43.004;23.052;2023-02-21T15:33:09;16.57;;;11.70;;
8333;SDS011;4204;43.004;23.052;2023-02-21T15:35:42;40.63;;;23.23;;
8333;SDS011;4204;43.004;23.052;2023-02-21T15:38:14;48.10;;;30.43;;
8333;SDS011;4204;43.004;23.052;2023-02-21T15:40:46;32.00;;;15.50;;
8333;SDS011;4204;43.004;23.052;2023-02-21T15:43:26;23.17;;;10.97;;
8333;SDS011;4204;43.004;23.052;2023-02-21T15:46:00;11.80;;;8.40;;
8333;SDS011;4204;43.004;23.052;2023-02-21T15:48:29;6.67;;;5.23;;
8333;SDS011;4204;43.004;23.052;2023-02-21T15:50:59;9.47;;;5.00;;
8333;SDS011;4204;43.004;23.052;2023-02-21T15:53:30;10.13;;;6.60;;
8333;SDS011;4204;43.004;23.052;2023-02-21T16:01:40;11.93;;;8.07;;
8333;SDS011;4204;43.004;23.052;2023-02-21T16:04:15;19.93;;;11.33;;
8333;SDS011;4204;43.004;23.052;2023-02-21T16:06:45;52.10;;;28.30;;
8333;SDS011;4204;43.004;23.052;2023-02-21T16:09:19;45.53;;;26.10;;
8333;SDS011;4204;43.004;23.052;2023-02-21T16:11:51;54.83;;;33.37;;
8333;SDS011;4204;43.004;23.052;2023-02-21T16:14:24;48.53;;;31.43;;
8333;SDS011;4204;43.004;23.052;2023-02-21T16:17:11;30.00;;;19.03;;
8333;SDS011;4204;43.004;23.052;2023-02-21T16:19:48;52.23;;;31.43;;